Terminal Aerodrome Forecast
Issued by NWS

Home | Current Version | Previous Version | Text Only | Print | Product List | Glossary Off
Versions: 1 2 3 4 5 6 7 8 9 10 11 12 13 14 15 16

887
FTUS43 KGRB 292324
TAFCWA
TAF
KCWA 292324Z 3000/3024 27005KT P6SM BKN035
     FM300900 17003KT P6SM BKN025
     FM301200 VRB03KT 6SM BR BKN020
     FM301800 23004KT P6SM -RASN OVC015=

USA.gov is the U.S. government's official web portal to all federal, state and local government web resources and services.